Terminal Aerodrome Forecast
Issued by NWS Wilmington, OH

Current Version | Previous Version | Graphics & Text | Print | Product List | Glossary On
Versions: 1 2 3 4 5 6 7 8 9 10 11 12 13 14 15 16 17 18 19 20 21 22
898
FTUS41 KILN 210538
TAFCMH
TAF
KCMH 210538Z 2106/2206 10008KT P6SM OVC200
     FM211400 18008KT P6SM SCT035 BKN230
     FM212200 21010G21KT P6SM SCT035 OVC070
     FM212300 20009KT P6SM VCSH SCT035 OVC070
     FM220000 19008KT P6SM SCT035 OVC060
     FM220300 20006KT 6SM BR BKN028 OVC035=

USA.gov is the U.S. government's official web portal to all federal, state and local government web resources and services.